sensor_id;sensor_type;location;lat;lon;timestamp;pressure;altitude;pressure_sealevel;temperature;humidity
55656;BME280;41530;52.382;5.270;2022-12-07T00:01:23;102048.25;;;14.77;53.59
55656;BME280;41530;52.382;5.270;2022-12-07T00:03:53;102043.03;;;14.75;53.67
55656;BME280;41530;52.382;5.270;2022-12-07T00:06:20;102050.13;;;14.75;53.67
55656;BME280;41530;52.382;5.270;2022-12-07T00:08:47;102047.38;;;14.76;53.55
55656;BME280;41530;52.382;5.270;2022-12-07T00:11:17;102046.53;;;14.76;53.66
55656;BME280;41530;52.382;5.270;2022-12-07T00:13:45;102047.59;;;14.73;53.57
55656;BME280;41530;52.382;5.270;2022-12-07T00:16:14;102040.59;;;14.72;53.65
55656;BME280;41530;52.382;5.270;2022-12-07T00:18:42;102040.50;;;14.74;53.69
55656;BME280;41530;52.382;5.270;2022-12-07T00:21:14;102045.88;;;14.72;53.58
55656;BME280;41530;52.382;5.270;2022-12-07T00:23:42;102045.88;;;14.72;53.50
55656;BME280;41530;52.382;5.270;2022-12-07T00:26:12;102047.78;;;14.70;53.28
55656;BME280;41530;52.382;5.270;2022-12-07T00:28:39;102047.88;;;14.69;53.41
55656;BME280;41530;52.382;5.270;2022-12-07T00:31:09;102030.63;;;14.63;53.39
55656;BME280;41530;52.382;5.270;2022-12-07T00:33:37;102044.50;;;14.67;53.31
55656;BME280;41530;52.382;5.270;2022-12-07T00:36:10;102033.19;;;14.65;53.17
55656;BME280;41530;52.382;5.270;2022-12-07T00:38:38;102022.03;;;14.59;53.28
55656;BME280;41530;52.382;5.270;2022-12-07T00:41:09;102021.19;;;14.59;53.34
55656;BME280;41530;52.382;5.270;2022-12-07T00:43:38;102012.50;;;14.57;53.35
55656;BME280;41530;52.382;5.270;2022-12-07T00:46:05;102016.75;;;14.59;53.19
55656;BME280;41530;52.382;5.270;2022-12-07T00:48:32;102012.28;;;14.60;53.33
55656;BME280;41530;52.382;5.270;2022-12-07T00:51:00;102012.28;;;14.60;53.33
55656;BME280;41530;52.382;5.270;2022-12-07T00:53:27;102010.50;;;14.60;53.36
55656;BME280;41530;52.382;5.270;2022-12-07T00:55:54;102013.25;;;14.59;53.20
55656;BME280;41530;52.382;5.270;2022-12-07T00:58:23;102011.44;;;14.59;53.18
55656;BME280;41530;52.382;5.270;2022-12-07T01:00:50;102007.31;;;14.55;53.14
55656;BME280;41530;52.382;5.270;2022-12-07T01:03:17;102010.69;;;14.57;52.99
55656;BME280;41530;52.382;5.270;2022-12-07T01:05:51;102001.91;;;14.57;53.04
55656;BME280;41530;52.382;5.270;2022-12-07T01:08:20;102016.00;;;14.57;52.99
55656;BME280;41530;52.382;5.270;2022-12-07T01:10:48;102004.56;;;14.57;52.89
55656;BME280;41530;52.382;5.270;2022-12-07T01:13:16;102016.00;;;14.57;53.05
55656;BME280;41530;52.382;5.270;2022-12-07T01:15:44;102014.41;;;14.55;53.08
55656;BME280;41530;52.382;5.270;2022-12-07T01:18:11;102019.50;;;14.58;52.92
55656;BME280;41530;52.382;5.270;2022-12-07T01:20:37;102021.28;;;14.57;52.98
55656;BME280;41530;52.382;5.270;2022-12-07T01:23:04;102025.63;;;14.58;52.99
55656;BME280;41530;52.382;5.270;2022-12-07T01:25:31;102030.09;;;14.58;53.06
55656;BME280;41530;52.382;5.270;2022-12-07T01:27:58;102034.44;;;14.59;53.04
55656;BME280;41530;52.382;5.270;2022-12-07T01:30:24;102032.84;;;14.56;53.08
55656;BME280;41530;52.382;5.270;2022-12-07T01:32:51;102026.16;;;14.51;53.00
55656;BME280;41530;52.382;5.270;2022-12-07T01:35:17;102036.34;;;14.57;53.01
55656;BME280;41530;52.382;5.270;2022-12-07T01:37:44;102028.59;;;14.54;52.98
55656;BME280;41530;52.382;5.270;2022-12-07T01:40:11;102029.34;;;14.56;52.85
55656;BME280;41530;52.382;5.270;2022-12-07T01:42:38;102030.38;;;14.53;52.98
55656;BME280;41530;52.382;5.270;2022-12-07T01:45:39;102027.84;;;14.52;52.79
55656;BME280;41530;52.382;5.270;2022-12-07T01:48:08;102018.53;;;14.46;52.83
55656;BME280;41530;52.382;5.270;2022-12-07T01:50:36;102025.41;;;14.49;53.00
55656;BME280;41530;52.382;5.270;2022-12-07T01:53:06;102027.31;;;14.47;52.47
55656;BME280;41530;52.382;5.270;2022-12-07T01:55:40;102029.75;;;14.50;52.72
55656;BME280;41530;52.382;5.270;2022-12-07T01:58:07;102024.88;;;14.44;52.82
55656;BME280;41530;52.382;5.270;2022-12-07T02:00:35;102020.22;;;14.47;52.78
55656;BME280;41530;52.382;5.270;2022-12-07T02:03:08;102014.84;;;14.49;52.77
55656;BME280;41530;52.382;5.270;2022-12-07T02:05:38;102011.44;;;14.47;52.85
55656;BME280;41530;52.382;5.270;2022-12-07T02:08:07;102007.09;;;14.46;53.01
55656;BME280;41530;52.382;5.270;2022-12-07T02:10:35;102015.69;;;14.49;52.76
55656;BME280;41530;52.382;5.270;2022-12-07T02:13:24;102004.34;;;14.47;52.69
55656;BME280;41530;52.382;5.270;2022-12-07T02:21:52;102003.38;;;14.48;52.48
55656;BME280;41530;52.382;5.270;2022-12-07T02:30:12;102001.03;;;14.44;52.74
55656;BME280;41530;52.382;5.270;2022-12-07T02:33:00;102005.28;;;14.46;52.74
55656;BME280;41530;52.382;5.270;2022-12-07T02:35:39;101995.75;;;14.44;52.54
55656;BME280;41530;52.382;5.270;2022-12-07T02:38:14;101981.84;;;14.40;52.60
55656;BME280;41530;52.382;5.270;2022-12-07T02:43:19;101991.66;;;14.38;52.66
55656;BME280;41530;52.382;5.270;2022-12-07T02:45:50;101992.00;;;14.34;52.47
55656;BME280;41530;52.382;5.270;2022-12-07T02:48:18;101981.50;;;14.32;52.74
55656;BME280;41530;52.382;5.270;2022-12-07T02:50:51;101976.97;;;14.34;52.57
55656;BME280;41530;52.382;5.270;2022-12-07T02:53:35;101990.00;;;14.37;52.55
55656;BME280;41530;52.382;5.270;2022-12-07T03:02:20;101996.91;;;14.40;52.59
55656;BME280;41530;52.382;5.270;2022-12-07T03:10:14;101993.28;;;14.41;52.86
55656;BME280;41530;52.382;5.270;2022-12-07T03:13:09;101995.00;;;14.42;52.69
55656;BME280;41530;52.382;5.270;2022-12-07T03:15:49;101990.66;;;14.41;52.75
55656;BME280;41530;52.382;5.270;2022-12-07T03:18:22;101998.59;;;14.41;52.81
55656;BME280;41530;52.382;5.270;2022-12-07T03:20:51;102003.78;;;14.42;52.62
55656;BME280;41530;52.382;5.270;2022-12-07T03:23:20;101999.53;;;14.40;52.83
55656;BME280;41530;52.382;5.270;2022-12-07T03:25:52;102004.72;;;14.41;52.67
55656;BME280;41530;52.382;5.270;2022-12-07T03:28:31;102004.72;;;14.41;52.48
55656;BME280;41530;52.382;5.270;2022-12-07T03:33:59;101997.75;;;14.40;52.53
55656;BME280;41530;52.382;5.270;2022-12-07T03:36:52;101987.22;;;14.39;52.57
55656;BME280;41530;52.382;5.270;2022-12-07T03:39:39;101975.91;;;14.37;52.69
55656;BME280;41530;52.382;5.270;2022-12-07T03:42:08;101981.00;;;14.40;52.87
55656;BME280;41530;52.382;5.270;2022-12-07T03:44:37;101968.63;;;14.40;52.89
55656;BME280;41530;52.382;5.270;2022-12-07T03:50:05;101966.88;;;14.39;52.64
55656;BME280;41530;52.382;5.270;2022-12-07T03:52:39;101964.38;;;14.38;52.61
55656;BME280;41530;52.382;5.270;2022-12-07T03:57:49;101964.38;;;14.38;52.63
55656;BME280;41530;52.382;5.270;2022-12-07T04:00:18;101965.13;;;14.40;52.80
55656;BME280;41530;52.382;5.270;2022-12-07T04:02:45;101961.59;;;14.39;52.66
55656;BME280;41530;52.382;5.270;2022-12-07T04:05:13;101954.53;;;14.40;52.87
55656;BME280;41530;52.382;5.270;2022-12-07T04:07:40;101963.31;;;14.40;52.59
55656;BME280;41530;52.382;5.270;2022-12-07T04:10:07;101955.38;;;14.40;52.79
55656;BME280;41530;52.382;5.270;2022-12-07T04:12:34;101959.91;;;14.38;52.93
55656;BME280;41530;52.382;5.270;2022-12-07T04:15:02;101951.13;;;14.38;52.75
55656;BME280;41530;52.382;5.270;2022-12-07T04:17:29;101957.19;;;14.40;52.71
55656;BME280;41530;52.382;5.270;2022-12-07T04:19:56;101964.25;;;14.39;52.73
55656;BME280;41530;52.382;5.270;2022-12-07T04:22:23;101956.44;;;14.38;52.68
55656;BME280;41530;52.382;5.270;2022-12-07T04:24:49;101965.19;;;14.38;52.70
55656;BME280;41530;52.382;5.270;2022-12-07T04:27:16;101967.97;;;14.37;52.69
55656;BME280;41530;52.382;5.270;2022-12-07T04:29:43;101971.66;;;14.34;52.58
55656;BME280;41530;52.382;5.270;2022-12-07T04:32:09;101976.13;;;14.34;52.46
55656;BME280;41530;52.382;5.270;2022-12-07T04:34:36;101975.47;;;14.30;52.56
55656;BME280;41530;52.382;5.270;2022-12-07T04:37:04;101966.78;;;14.28;52.58
55656;BME280;41530;52.382;5.270;2022-12-07T04:39:32;101964.03;;;14.30;52.54
55656;BME280;41530;52.382;5.270;2022-12-07T04:42:00;101966.69;;;14.30;52.82
55656;BME280;41530;52.382;5.270;2022-12-07T04:44:27;101957.97;;;14.27;52.52
55656;BME280;41530;52.382;5.270;2022-12-07T04:46:55;101946.88;;;14.22;52.62
55656;BME280;41530;52.382;5.270;2022-12-07T04:49:22;101950.91;;;14.28;52.54
55656;BME280;41530;52.382;5.270;2022-12-07T04:51:50;101955.34;;;14.27;52.48
55656;BME280;41530;52.382;5.270;2022-12-07T04:54:17;101952.59;;;14.29;52.26
55656;BME280;41530;52.382;5.270;2022-12-07T04:56:44;101947.41;;;14.27;52.46
55656;BME280;41530;52.382;5.270;2022-12-07T04:59:12;101943.81;;;14.28;52.46
55656;BME280;41530;52.382;5.270;2022-12-07T05:01:40;101947.28;;;14.29;52.47
55656;BME280;41530;52.382;5.270;2022-12-07T05:04:07;101945.50;;;14.30;52.62
55656;BME280;41530;52.382;5.270;2022-12-07T05:06:35;101945.50;;;14.30;52.47
55656;BME280;41530;52.382;5.270;2022-12-07T05:09:03;101946.44;;;14.28;52.47
55656;BME280;41530;52.382;5.270;2022-12-07T05:11:30;101944.66;;;14.29;52.40
55656;BME280;41530;52.382;5.270;2022-12-07T05:14:10;101957.13;;;14.27;52.23
55656;BME280;41530;52.382;5.270;2022-12-07T05:16:38;101950.03;;;14.27;52.27
55656;BME280;41530;52.382;5.270;2022-12-07T05:19:06;101946.44;;;14.28;52.40
55656;BME280;41530;52.382;5.270;2022-12-07T05:21:33;101950.03;;;14.27;52.54
55656;BME280;41530;52.382;5.270;2022-12-07T05:23:59;101951.94;;;14.25;52.49
55656;BME280;41530;52.382;5.270;2022-12-07T05:26:27;101955.44;;;14.26;52.39
55656;BME280;41530;52.382;5.270;2022-12-07T05:28:55;101958.22;;;14.24;52.49
55656;BME280;41530;52.382;5.270;2022-12-07T05:31:23;101955.44;;;14.26;52.39
55656;BME280;41530;52.382;5.270;2022-12-07T05:33:51;101962.53;;;14.25;52.38
55656;BME280;41530;52.382;5.270;2022-12-07T05:36:18;101963.38;;;14.26;52.49
55656;BME280;41530;52.382;5.270;2022-12-07T05:38:46;101963.50;;;14.24;52.41
55656;BME280;41530;52.382;5.270;2022-12-07T05:41:17;101960.88;;;14.24;52.46
55656;BME280;41530;52.382;5.270;2022-12-07T05:44:03;101956.50;;;14.23;52.21
55656;BME280;41530;52.382;5.270;2022-12-07T05:46:30;101958.41;;;14.21;52.42
55656;BME280;41530;52.382;5.270;2022-12-07T05:48:57;101953.97;;;14.22;52.43
55656;BME280;41530;52.382;5.270;2022-12-07T05:51:23;101948.69;;;14.22;52.51
55656;BME280;41530;52.382;5.270;2022-12-07T05:53:50;101947.72;;;14.23;52.33
55656;BME280;41530;52.382;5.270;2022-12-07T05:56:16;101943.28;;;14.23;52.33
55656;BME280;41530;52.382;5.270;2022-12-07T05:58:44;101937.13;;;14.23;52.45
55656;BME280;41530;52.382;5.270;2022-12-07T06:01:29;101942.53;;;14.21;52.32
55656;BME280;41530;52.382;5.270;2022-12-07T06:03:56;101938.00;;;14.23;52.50
55656;BME280;41530;52.382;5.270;2022-12-07T06:06:23;101935.34;;;14.23;52.57
55656;BME280;41530;52.382;5.270;2022-12-07T06:08:49;101927.41;;;14.23;52.58
55656;BME280;41530;52.382;5.270;2022-12-07T06:11:16;101933.53;;;14.24;52.34
55656;BME280;41530;52.382;5.270;2022-12-07T06:14:01;101935.34;;;14.23;52.36
55656;BME280;41530;52.382;5.270;2022-12-07T06:16:28;101941.50;;;14.24;52.43
55656;BME280;41530;52.382;5.270;2022-12-07T06:18:54;101942.34;;;14.24;52.41
55656;BME280;41530;52.382;5.270;2022-12-07T06:21:21;101943.28;;;14.23;52.74
55656;BME280;41530;52.382;5.270;2022-12-07T06:23:48;101943.28;;;14.23;52.45
55656;BME280;41530;52.382;5.270;2022-12-07T06:26:15;101938.94;;;14.22;52.59
55656;BME280;41530;52.382;5.270;2022-12-07T06:28:42;101940.50;;;14.25;52.63
55656;BME280;41530;52.382;5.270;2022-12-07T06:31:09;101935.34;;;14.23;52.52
55656;BME280;41530;52.382;5.270;2022-12-07T06:33:39;101938.72;;;14.25;52.66
55656;BME280;41530;52.382;5.270;2022-12-07T06:36:06;101939.56;;;14.26;52.37
55656;BME280;41530;52.382;5.270;2022-12-07T06:38:33;101938.00;;;14.23;52.45
55656;BME280;41530;52.382;5.270;2022-12-07T06:41:00;101936.19;;;14.24;52.44
55656;BME280;41530;52.382;5.270;2022-12-07T06:43:27;101936.19;;;14.24;52.30
55656;BME280;41530;52.382;5.270;2022-12-07T06:45:53;101936.06;;;14.25;52.42
55656;BME280;41530;52.382;5.270;2022-12-07T06:48:20;101951.00;;;14.26;52.44
55656;BME280;41530;52.382;5.270;2022-12-07T06:50:48;101943.16;;;14.25;52.57
55656;BME280;41530;52.382;5.270;2022-12-07T06:53:20;101943.06;;;14.26;52.48
55656;BME280;41530;52.382;5.270;2022-12-07T06:55:46;101942.19;;;14.26;52.35
55656;BME280;41530;52.382;5.270;2022-12-07T06:58:13;101939.56;;;14.26;52.21
55656;BME280;41530;52.382;5.270;2022-12-07T07:00:39;101948.34;;;14.26;52.14
55656;BME280;41530;52.382;5.270;2022-12-07T07:03:06;101941.25;;;14.27;52.38
55656;BME280;41530;52.382;5.270;2022-12-07T07:05:34;101952.69;;;14.27;52.57
55656;BME280;41530;52.382;5.270;2022-12-07T07:08:01;101947.41;;;14.27;52.52
55656;BME280;41530;52.382;5.270;2022-12-07T07:10:47;101944.75;;;14.27;52.64
55656;BME280;41530;52.382;5.270;2022-12-07T07:13:14;101949.09;;;14.28;52.80
55656;BME280;41530;52.382;5.270;2022-12-07T07:15:41;101946.44;;;14.28;52.89
55656;BME280;41530;52.382;5.270;2022-12-07T07:18:07;101948.25;;;14.28;52.91
55656;BME280;41530;52.382;5.270;2022-12-07T07:20:34;101947.28;;;14.29;53.37
55656;BME280;41530;52.382;5.270;2022-12-07T07:23:02;101946.34;;;14.30;53.33
55656;BME280;41530;52.382;5.270;2022-12-07T07:25:29;101946.34;;;14.30;53.50
55656;BME280;41530;52.382;5.270;2022-12-07T07:27:55;101953.44;;;14.30;53.73
55656;BME280;41530;52.382;5.270;2022-12-07T07:30:23;101949.94;;;14.29;53.69
55656;BME280;41530;52.382;5.270;2022-12-07T07:32:50;101956.94;;;14.30;53.65
55656;BME280;41530;52.382;5.270;2022-12-07T07:35:16;101959.59;;;14.30;53.44
55656;BME280;41530;52.382;5.270;2022-12-07T07:37:43;101947.50;;;14.26;53.42
55656;BME280;41530;52.382;5.270;2022-12-07T07:40:10;101964.97;;;14.28;53.58
55656;BME280;41530;52.382;5.270;2022-12-07T07:42:37;101966.69;;;14.30;53.56
55656;BME280;41530;52.382;5.270;2022-12-07T07:45:04;101959.59;;;14.30;53.45
55656;BME280;41530;52.382;5.270;2022-12-07T07:47:31;101968.38;;;14.31;53.49
55656;BME280;41530;52.382;5.270;2022-12-07T07:49:58;101958.72;;;14.30;53.69
55656;BME280;41530;52.382;5.270;2022-12-07T07:52:25;101951.63;;;14.30;53.55
55656;BME280;41530;52.382;5.270;2022-12-07T07:54:52;101956.72;;;14.33;53.47
55656;BME280;41530;52.382;5.270;2022-12-07T07:57:19;101950.59;;;14.33;53.75
55656;BME280;41530;52.382;5.270;2022-12-07T07:59:46;101955.78;;;14.34;53.67
55656;BME280;41530;52.382;5.270;2022-12-07T08:02:17;101957.59;;;14.34;53.78
55656;BME280;41530;52.382;5.270;2022-12-07T08:04:45;101959.28;;;14.35;53.61
55656;BME280;41530;52.382;5.270;2022-12-07T08:07:12;101957.47;;;14.35;53.66
55656;BME280;41530;52.382;5.270;2022-12-07T08:09:39;101953.13;;;14.34;53.96
55656;BME280;41530;52.382;5.270;2022-12-07T08:12:06;101952.19;;;14.35;53.73
55656;BME280;41530;52.382;5.270;2022-12-07T08:14:33;101968.16;;;14.34;53.77
55656;BME280;41530;52.382;5.270;2022-12-07T08:17:00;101960.13;;;14.35;53.86
55656;BME280;41530;52.382;5.270;2022-12-07T08:19:27;101973.25;;;14.37;53.74
55656;BME280;41530;52.382;5.270;2022-12-07T08:21:55;101976.00;;;14.35;53.91
55656;BME280;41530;52.382;5.270;2022-12-07T08:24:22;101976.88;;;14.36;53.86
55656;BME280;41530;52.382;5.270;2022-12-07T08:26:52;101979.41;;;14.37;53.77
55656;BME280;41530;52.382;5.270;2022-12-07T08:29:19;101974.97;;;14.38;53.87
55656;BME280;41530;52.382;5.270;2022-12-07T08:31:46;101974.13;;;14.37;53.86
55656;BME280;41530;52.382;5.270;2022-12-07T08:34:13;101974.13;;;14.37;54.07
55656;BME280;41530;52.382;5.270;2022-12-07T08:36:40;101975.78;;;14.38;53.80
55656;BME280;41530;52.382;5.270;2022-12-07T08:39:06;101969.78;;;14.36;54.06
55656;BME280;41530;52.382;5.270;2022-12-07T08:41:53;101987.22;;;14.39;54.01
55656;BME280;41530;52.382;5.270;2022-12-07T08:44:19;101986.31;;;14.40;53.99
55656;BME280;41530;52.382;5.270;2022-12-07T08:46:53;101986.31;;;14.40;54.09
55656;BME280;41530;52.382;5.270;2022-12-07T08:49:34;101980.06;;;14.41;54.31
55656;BME280;41530;52.382;5.270;2022-12-07T08:52:04;101981.75;;;14.42;54.34
55656;BME280;41530;52.382;5.270;2022-12-07T08:54:33;101974.56;;;14.44;54.20
55656;BME280;41530;52.382;5.270;2022-12-07T08:57:02;101970.88;;;14.46;53.94
55656;BME280;41530;52.382;5.270;2022-12-07T08:59:29;101961.97;;;14.47;54.03
55656;BME280;41530;52.382;5.270;2022-12-07T09:01:56;101960.06;;;14.49;54.05
55656;BME280;41530;52.382;5.270;2022-12-07T09:04:23;101970.34;;;14.54;54.03
55656;BME280;41530;52.382;5.270;2022-12-07T09:06:49;101970.88;;;14.59;54.05
55656;BME280;41530;52.382;5.270;2022-12-07T09:09:16;101965.38;;;14.62;53.98
55656;BME280;41530;52.382;5.270;2022-12-07T09:11:43;101970.44;;;14.65;53.91
55656;BME280;41530;52.382;5.270;2022-12-07T09:14:12;101963.97;;;14.69;53.72
55656;BME280;41530;52.382;5.270;2022-12-07T09:16:39;101968.44;;;14.69;53.72
55656;BME280;41530;52.382;5.270;2022-12-07T09:19:07;101965.69;;;14.70;53.95
55656;BME280;41530;52.382;5.270;2022-12-07T09:21:34;101968.44;;;14.69;53.82
55656;BME280;41530;52.382;5.270;2022-12-07T09:24:01;101961.22;;;14.71;54.01
55656;BME280;41530;52.382;5.270;2022-12-07T09:26:28;101968.22;;;14.72;53.85
55656;BME280;41530;52.382;5.270;2022-12-07T09:28:54;101968.97;;;14.74;53.84
55656;BME280;41530;52.382;5.270;2022-12-07T09:31:21;101968.88;;;14.75;53.81
55656;BME280;41530;52.382;5.270;2022-12-07T09:33:58;101965.28;;;14.76;53.83
55656;BME280;41530;52.382;5.270;2022-12-07T09:36:26;101967.81;;;14.78;53.82
55656;BME280;41530;52.382;5.270;2022-12-07T09:38:53;101967.56;;;14.81;53.48
55656;BME280;41530;52.382;5.270;2022-12-07T09:41:20;101975.22;;;14.85;53.68
55656;BME280;41530;52.382;5.270;2022-12-07T09:43:48;101967.06;;;14.88;53.58
55656;BME280;41530;52.382;5.270;2022-12-07T09:46:16;101961.88;;;14.87;53.88
55656;BME280;41530;52.382;5.270;2022-12-07T09:48:45;101959.88;;;14.90;53.74
55656;BME280;41530;52.382;5.270;2022-12-07T09:51:21;101964.19;;;14.91;53.53
55656;BME280;41530;52.382;5.270;2022-12-07T09:53:52;101959.72;;;14.92;53.59
55656;BME280;41530;52.382;5.270;2022-12-07T09:56:20;101952.00;;;14.89;53.50
55656;BME280;41530;52.382;5.270;2022-12-07T09:58:48;101961.53;;;14.91;53.61
55656;BME280;41530;52.382;5.270;2022-12-07T10:01:18;101961.41;;;14.93;53.55
55656;BME280;41530;52.382;5.270;2022-12-07T10:03:53;101951.56;;;14.95;53.53
55656;BME280;41530;52.382;5.270;2022-12-07T10:06:21;101953.25;;;14.96;53.69
55656;BME280;41530;52.382;5.270;2022-12-07T10:08:48;101943.72;;;14.93;53.73
55656;BME280;41530;52.382;5.270;2022-12-07T10:11:14;101946.06;;;14.98;53.70
55656;BME280;41530;52.382;5.270;2022-12-07T10:13:51;101941.50;;;15.00;53.75
55656;BME280;41530;52.382;5.270;2022-12-07T10:19:26;101940.44;;;15.03;53.68
55656;BME280;41530;52.382;5.270;2022-12-07T10:22:09;101941.28;;;15.03;53.54
55656;BME280;41530;52.382;5.270;2022-12-07T10:24:38;101930.78;;;15.02;53.49
55656;BME280;41530;52.382;5.270;2022-12-07T10:27:21;101926.94;;;15.06;53.55
55656;BME280;41530;52.382;5.270;2022-12-07T10:29:50;101928.66;;;15.07;53.75
55656;BME280;41530;52.382;5.270;2022-12-07T10:34:44;101934.69;;;15.09;53.79
55656;BME280;41530;52.382;5.270;2022-12-07T10:37:19;101936.28;;;15.11;53.68
55656;BME280;41530;52.382;5.270;2022-12-07T10:39:54;101933.63;;;15.11;53.66
55656;BME280;41530;52.382;5.270;2022-12-07T10:50:47;101918.47;;;15.13;53.66
55656;BME280;41530;52.382;5.270;2022-12-07T10:59:34;101909.56;;;15.14;53.79
55656;BME280;41530;52.382;5.270;2022-12-07T11:02:15;101905.97;;;15.15;53.72
55656;BME280;41530;52.382;5.270;2022-12-07T11:10:26;101897.16;;;15.15;53.66
55656;BME280;41530;52.382;5.270;2022-12-07T11:18:40;101895.09;;;15.18;53.84
55656;BME280;41530;52.382;5.270;2022-12-07T11:21:23;101895.09;;;15.18;53.86
55656;BME280;41530;52.382;5.270;2022-12-07T11:24:16;101895.84;;;15.20;54.01
55656;BME280;41530;52.382;5.270;2022-12-07T11:27:12;101891.41;;;15.21;53.89
55656;BME280;41530;52.382;5.270;2022-12-07T11:30:08;101881.53;;;15.23;53.75
55656;BME280;41530;52.382;5.270;2022-12-07T11:33:00;101886.84;;;15.23;53.64
55656;BME280;41530;52.382;5.270;2022-12-07T11:35:49;101872.63;;;15.24;53.76
55656;BME280;41530;52.382;5.270;2022-12-07T11:38:26;101872.63;;;15.24;53.47
55656;BME280;41530;52.382;5.270;2022-12-07T11:41:01;101875.06;;;15.27;53.54
55656;BME280;41530;52.382;5.270;2022-12-07T11:49:52;101852.06;;;15.27;53.55
55656;BME280;41530;52.382;5.270;2022-12-07T11:52:27;101853.75;;;15.28;53.55
55656;BME280;41530;52.382;5.270;2022-12-07T11:54:57;101851.94;;;15.29;53.71
55656;BME280;41530;52.382;5.270;2022-12-07T11:57:33;101845.53;;;15.31;53.68
55656;BME280;41530;52.382;5.270;2022-12-07T12:00:08;101850.72;;;15.33;53.50
55656;BME280;41530;52.382;5.270;2022-12-07T12:05:22;101845.31;;;15.34;53.49
55656;BME280;41530;52.382;5.270;2022-12-07T12:16:55;101842.56;;;15.36;53.53
55656;BME280;41530;52.382;5.270;2022-12-07T12:19:42;101840.75;;;15.37;53.62
55656;BME280;41530;52.382;5.270;2022-12-07T12:22:15;101829.19;;;15.38;53.70
55656;BME280;41530;52.382;5.270;2022-12-07T12:24:48;101823.16;;;15.36;53.43
55656;BME280;41530;52.382;5.270;2022-12-07T12:27:26;101819.44;;;15.38;53.56
55656;BME280;41530;52.382;5.270;2022-12-07T12:29:59;101819.44;;;15.38;53.39
55656;BME280;41530;52.382;5.270;2022-12-07T12:32:38;101818.59;;;15.38;53.66
55656;BME280;41530;52.382;5.270;2022-12-07T12:35:37;101811.59;;;15.37;53.58
55656;BME280;41530;52.382;5.270;2022-12-07T12:38:29;101815.09;;;15.37;53.62
55656;BME280;41530;52.382;5.270;2022-12-07T12:40:57;101811.59;;;15.37;53.84
55656;BME280;41530;52.382;5.270;2022-12-07T12:51:49;101806.69;;;15.43;53.40
55656;BME280;41530;52.382;5.270;2022-12-07T12:54:21;101797.03;;;15.42;53.44
55656;BME280;41530;52.382;5.270;2022-12-07T12:56:52;101800.28;;;15.46;53.60
55656;BME280;41530;52.382;5.270;2022-12-07T13:02:09;101812.59;;;15.47;53.75
55656;BME280;41530;52.382;5.270;2022-12-07T13:15:42;101802.72;;;15.49;53.45
55656;BME280;41530;52.382;5.270;2022-12-07T13:23:58;101789.47;;;15.49;53.61
55656;BME280;41530;52.382;5.270;2022-12-07T13:29:20;101771.84;;;15.48;53.67
55656;BME280;41530;52.382;5.270;2022-12-07T13:31:57;101764.63;;;15.50;53.46
55656;BME280;41530;52.382;5.270;2022-12-07T13:34:39;101755.94;;;15.48;53.42
55656;BME280;41530;52.382;5.270;2022-12-07T13:42:32;101753.19;;;15.49;53.71
55656;BME280;41530;52.382;5.270;2022-12-07T13:45:16;101751.25;;;15.51;53.52
55656;BME280;41530;52.382;5.270;2022-12-07T13:47:51;101752.09;;;15.52;53.67
55656;BME280;41530;52.382;5.270;2022-12-07T13:50:29;101753.19;;;15.49;53.63
55656;BME280;41530;52.382;5.270;2022-12-07T13:53:00;101752.09;;;15.52;53.67
55656;BME280;41530;52.382;5.270;2022-12-07T13:55:28;101745.00;;;15.52;53.67
55656;BME280;41530;52.382;5.270;2022-12-07T13:57:55;101737.25;;;15.49;53.68
55656;BME280;41530;52.382;5.270;2022-12-07T14:00:25;101731.75;;;15.52;53.74
55656;BME280;41530;52.382;5.270;2022-12-07T14:05:39;101735.22;;;15.53;53.64
55656;BME280;41530;52.382;5.270;2022-12-07T14:11:01;101728.97;;;15.54;53.75
55656;BME280;41530;52.382;5.270;2022-12-07T14:13:32;101722.81;;;15.53;53.65
55656;BME280;41530;52.382;5.270;2022-12-07T14:16:04;101719.31;;;15.53;53.56
55656;BME280;41530;52.382;5.270;2022-12-07T14:18:40;101719.22;;;15.54;53.64
55656;BME280;41530;52.382;5.270;2022-12-07T14:23:40;101722.81;;;15.53;53.92
55656;BME280;41530;52.382;5.270;2022-12-07T14:28:35;101718.47;;;15.52;53.68
55656;BME280;41530;52.382;5.270;2022-12-07T14:31:03;101721.00;;;15.54;53.72
55656;BME280;41530;52.382;5.270;2022-12-07T14:33:34;101720.16;;;15.53;53.75
55656;BME280;41530;52.382;5.270;2022-12-07T14:36:01;101704.38;;;15.52;53.94
55656;BME280;41530;52.382;5.270;2022-12-07T14:38:27;101712.31;;;15.52;53.74
55656;BME280;41530;52.382;5.270;2022-12-07T14:40:54;101704.25;;;15.53;53.64
55656;BME280;41530;52.382;5.270;2022-12-07T14:43:41;101707.88;;;15.52;53.69
55656;BME280;41530;52.382;5.270;2022-12-07T14:46:27;101704.38;;;15.52;53.74
55656;BME280;41530;52.382;5.270;2022-12-07T14:48:57;101713.28;;;15.51;53.79
55656;BME280;41530;52.382;5.270;2022-12-07T14:51:45;101711.38;;;15.53;53.73
55656;BME280;41530;52.382;5.270;2022-12-07T14:54:33;101713.19;;;15.52;53.61
55656;BME280;41530;52.382;5.270;2022-12-07T14:57:00;101707.97;;;15.51;53.63
55656;BME280;41530;52.382;5.270;2022-12-07T14:59:26;101700.88;;;15.51;53.69
55656;BME280;41530;52.382;5.270;2022-12-07T15:01:53;101699.28;;;15.49;53.66
55656;BME280;41530;52.382;5.270;2022-12-07T15:04:19;101698.22;;;15.51;53.67
55656;BME280;41530;52.382;5.270;2022-12-07T15:07:00;101696.53;;;15.50;53.78
55656;BME280;41530;52.382;5.270;2022-12-07T15:09:29;101694.72;;;15.51;53.74
55656;BME280;41530;52.382;5.270;2022-12-07T15:11:55;101692.06;;;15.51;53.74
55656;BME280;41530;52.382;5.270;2022-12-07T15:14:22;101696.53;;;15.50;53.54
55656;BME280;41530;52.382;5.270;2022-12-07T15:16:49;101694.72;;;15.51;53.54
55656;BME280;41530;52.382;5.270;2022-12-07T15:19:35;101701.84;;;15.50;53.66